sensor_id;sensor_type;location;lat;lon;timestamp;pressure;altitude;pressure_sealevel;temperature;humidity
68508;BME280;55510;49.560;19.090;2023-02-21T17:02:21;96231.94;;;5.00;99.86
68508;BME280;55510;49.560;19.090;2023-02-21T17:05:24;96239.66;;;5.01;100.00
68508;BME280;55510;49.560;19.090;2023-02-21T17:08:25;96255.25;;;5.03;100.00
68508;BME280;55510;49.560;19.090;2023-02-21T17:11:27;96243.31;;;5.00;100.00
68508;BME280;55510;49.560;19.090;2023-02-21T17:14:28;96253.88;;;5.00;100.00
68508;BME280;55510;49.560;19.090;2023-02-21T17:17:29;96264.00;;;5.03;100.00
68508;BME280;55510;49.560;19.090;2023-02-21T17:20:30;96259.75;;;5.02;100.00
68508;BME280;55510;49.560;19.090;2023-02-21T17:23:31;96264.63;;;4.99;100.00
68508;BME280;55510;49.560;19.090;2023-02-21T17:26:31;96272.59;;;4.92;100.00
68508;BME280;55510;49.560;19.090;2023-02-21T17:29:32;96279.47;;;4.93;100.00
68508;BME280;55510;49.560;19.090;2023-02-21T17:32:33;96277.69;;;4.87;100.00
68508;BME280;55510;49.560;19.090;2023-02-21T17:35:34;96276.66;;;4.88;100.00
68508;BME280;55510;49.560;19.090;2023-02-21T17:38:34;96273.44;;;4.79;100.00
68508;BME280;55510;49.560;19.090;2023-02-21T17:41:35;96269.59;;;4.75;100.00
68508;BME280;55510;49.560;19.090;2023-02-21T17:44:36;96262.53;;;4.69;100.00
68508;BME280;55510;49.560;19.090;2023-02-21T17:47:40;96264.97;;;4.63;100.00
68508;BME280;55510;49.560;19.090;2023-02-21T17:50:41;96268.63;;;4.62;100.00
68508;BME280;55510;49.560;19.090;2023-02-21T17:53:41;96268.22;;;4.66;100.00
68508;BME280;55510;49.560;19.090;2023-02-21T17:56:42;96266.97;;;4.68;100.00
68508;BME280;55510;49.560;19.090;2023-02-21T17:59:43;96278.78;;;4.66;100.00
68508;BME280;55510;49.560;19.090;2023-02-21T18:02:44;96282.03;;;4.61;100.00
68508;BME280;55510;49.560;19.090;2023-02-21T18:05:45;96280.63;;;4.52;100.00
68508;BME280;55510;49.560;19.090;2023-02-21T18:08:46;96279.22;;;4.49;100.00
68508;BME280;55510;49.560;19.090;2023-02-21T18:11:49;96285.31;;;4.49;100.00
68508;BME280;55510;49.560;19.090;2023-02-21T18:14:50;96287.34;;;4.47;100.00
68508;BME280;55510;49.560;19.090;2023-02-21T18:17:52;96278.41;;;4.48;100.00
68508;BME280;55510;49.560;19.090;2023-02-21T18:20:53;96294.81;;;4.50;100.00
68508;BME280;55510;49.560;19.090;2023-02-21T18:23:54;96300.28;;;4.56;100.00
68508;BME280;55510;49.560;19.090;2023-02-21T18:26:54;96306.75;;;4.67;100.00
68508;BME280;55510;49.560;19.090;2023-02-21T18:29:55;96293.75;;;4.65;100.00
68508;BME280;55510;49.560;19.090;2023-02-21T18:32:56;96293.75;;;4.65;100.00
68508;BME280;55510;49.560;19.090;2023-02-21T18:35:57;96297.81;;;4.68;100.00
68508;BME280;55510;49.560;19.090;2023-02-21T18:38:58;96296.22;;;4.67;100.00
68508;BME280;55510;49.560;19.090;2023-02-21T18:41:59;96305.91;;;4.73;100.00
68508;BME280;55510;49.560;19.090;2023-02-21T18:45:00;96310.78;;;4.69;100.00
68508;BME280;55510;49.560;19.090;2023-02-21T18:48:01;96302.44;;;4.72;100.00
68508;BME280;55510;49.560;19.090;2023-02-21T18:51:02;96300.66;;;4.66;100.00
68508;BME280;55510;49.560;19.090;2023-02-21T18:54:04;96288.69;;;4.70;100.00
68508;BME280;55510;49.560;19.090;2023-02-21T18:57:04;96291.72;;;4.74;100.00
68508;BME280;55510;49.560;19.090;2023-02-21T19:00:06;96290.09;;;4.73;100.00
68508;BME280;55510;49.560;19.090;2023-02-21T19:03:07;96302.88;;;4.76;100.00
68508;BME280;55510;49.560;19.090;2023-02-21T19:06:11;96311.75;;;4.82;100.00
68508;BME280;55510;49.560;19.090;2023-02-21T19:09:13;96301.19;;;4.82;100.00
68508;BME280;55510;49.560;19.090;2023-02-21T19:12:14;96316.41;;;4.79;100.00
68508;BME280;55510;49.560;19.090;2023-02-21T19:15:15;96315.81;;;4.77;100.00
68508;BME280;55510;49.560;19.090;2023-02-21T19:18:16;96307.91;;;4.77;100.00
68508;BME280;55510;49.560;19.090;2023-02-21T19:21:19;96323.72;;;4.84;100.00
68508;BME280;55510;49.560;19.090;2023-02-21T19:24:19;96323.09;;;4.89;99.94
68508;BME280;55510;49.560;19.090;2023-02-21T19:27:20;96319.22;;;4.98;99.45
68508;BME280;55510;49.560;19.090;2023-02-21T19:30:21;96317.16;;;5.00;98.07
68508;BME280;55510;49.560;19.090;2023-02-21T19:33:23;96320.41;;;5.02;97.75
68508;BME280;55510;49.560;19.090;2023-02-21T19:36:24;96314.72;;;5.05;97.03
68508;BME280;55510;49.560;19.090;2023-02-21T19:39:25;96321.19;;;5.10;96.97
68508;BME280;55510;49.560;19.090;2023-02-21T19:42:26;96323.19;;;5.14;96.03
68508;BME280;55510;49.560;19.090;2023-02-21T19:45:26;96329.28;;;5.15;94.80
68508;BME280;55510;49.560;19.090;2023-02-21T19:48:27;96321.34;;;5.21;94.60
68508;BME280;55510;49.560;19.090;2023-02-21T19:51:30;96321.50;;;5.27;93.81
68508;BME280;55510;49.560;19.090;2023-02-21T19:54:31;96330.44;;;5.26;93.72
68508;BME280;55510;49.560;19.090;2023-02-21T19:57:31;96328.41;;;5.28;93.27
68508;BME280;55510;49.560;19.090;2023-02-21T20:00:36;96335.31;;;5.29;93.12
68508;BME280;55510;49.560;19.090;2023-02-21T20:03:39;96333.06;;;5.32;92.23
68508;BME280;55510;49.560;19.090;2023-02-21T20:06:41;96335.69;;;5.32;92.07
68508;BME280;55510;49.560;19.090;2023-02-21T20:09:42;96327.19;;;5.30;91.74
68508;BME280;55510;49.560;19.090;2023-02-21T20:12:44;96343.84;;;5.24;91.84
68508;BME280;55510;49.560;19.090;2023-02-21T20:15:45;96342.63;;;5.20;92.30
68508;BME280;55510;49.560;19.090;2023-02-21T20:18:47;96325.63;;;5.16;92.62
68508;BME280;55510;49.560;19.090;2023-02-21T20:21:49;96323.97;;;5.21;92.97
68508;BME280;55510;49.560;19.090;2023-02-21T20:24:51;96316.22;;;5.27;92.65
68508;BME280;55510;49.560;19.090;2023-02-21T20:27:51;96317.00;;;5.34;92.46
68508;BME280;55510;49.560;19.090;2023-02-21T20:30:52;96331.63;;;5.36;91.84
68508;BME280;55510;49.560;19.090;2023-02-21T20:33:53;96331.19;;;5.40;92.49
68508;BME280;55510;49.560;19.090;2023-02-21T20:36:54;96346.19;;;5.46;92.79
68508;BME280;55510;49.560;19.090;2023-02-21T20:39:58;96343.72;;;5.51;93.81
68508;BME280;55510;49.560;19.090;2023-02-21T20:42:59;96347.34;;;5.57;95.36
68508;BME280;55510;49.560;19.090;2023-02-21T20:46:00;96340.44;;;5.56;95.21
68508;BME280;55510;49.560;19.090;2023-02-21T20:49:00;96333.75;;;5.53;95.31
68508;BME280;55510;49.560;19.090;2023-02-21T20:52:03;96326.44;;;5.48;95.76
68508;BME280;55510;49.560;19.090;2023-02-21T20:55:04;96332.84;;;5.34;96.56
68508;BME280;55510;49.560;19.090;2023-02-21T20:58:05;96338.19;;;5.14;97.13
68508;BME280;55510;49.560;19.090;2023-02-21T21:01:11;96327.72;;;5.00;98.25
68508;BME280;55510;49.560;19.090;2023-02-21T21:04:13;96328.38;;;4.89;99.47
68508;BME280;55510;49.560;19.090;2023-02-21T21:07:17;96319.69;;;4.75;100.00
68508;BME280;55510;49.560;19.090;2023-02-21T21:10:23;96319.94;;;4.67;100.00
68508;BME280;55510;49.560;19.090;2023-02-21T21:13:23;96337.38;;;4.61;100.00
68508;BME280;55510;49.560;19.090;2023-02-21T21:16:24;96340.84;;;4.55;100.00
68508;BME280;55510;49.560;19.090;2023-02-21T21:19:26;96340.22;;;4.53;100.00
68508;BME280;55510;49.560;19.090;2023-02-21T21:22:32;96328.50;;;4.48;100.00
68508;BME280;55510;49.560;19.090;2023-02-21T21:25:33;96358.28;;;4.42;100.00
68508;BME280;55510;49.560;19.090;2023-02-21T21:28:34;96364.34;;;4.36;100.00
68508;BME280;55510;49.560;19.090;2023-02-21T21:31:35;96369.03;;;4.34;100.00
68508;BME280;55510;49.560;19.090;2023-02-21T21:34:36;96369.03;;;4.34;100.00
68508;BME280;55510;49.560;19.090;2023-02-21T21:37:41;96378.97;;;4.39;100.00
68508;BME280;55510;49.560;19.090;2023-02-21T21:40:41;96378.13;;;4.45;100.00
68508;BME280;55510;49.560;19.090;2023-02-21T21:43:47;96375.91;;;4.48;100.00
68508;BME280;55510;49.560;19.090;2023-02-21T21:46:49;96377.91;;;4.53;100.00
68508;BME280;55510;49.560;19.090;2023-02-21T21:49:51;96383.19;;;4.53;100.00
68508;BME280;55510;49.560;19.090;2023-02-21T21:52:55;96386.66;;;4.54;100.00
68508;BME280;55510;49.560;19.090;2023-02-21T21:55:59;96380.16;;;4.56;100.00
68508;BME280;55510;49.560;19.090;2023-02-21T21:59:04;96378.34;;;4.57;100.00
68508;BME280;55510;49.560;19.090;2023-02-21T22:02:09;96376.13;;;4.54;100.00
68508;BME280;55510;49.560;19.090;2023-02-21T22:05:10;96380.16;;;4.43;100.00
68508;BME280;55510;49.560;19.090;2023-02-21T22:08:13;96383.41;;;4.38;100.00
68508;BME280;55510;49.560;19.090;2023-02-21T22:11:15;96386.25;;;4.30;100.00
68508;BME280;55510;49.560;19.090;2023-02-21T22:14:17;96390.31;;;4.26;100.00
68508;BME280;55510;49.560;19.090;2023-02-21T22:17:18;96382.00;;;4.15;100.00
68508;BME280;55510;49.560;19.090;2023-02-21T22:20:21;96394.56;;;4.13;100.00
68508;BME280;55510;49.560;19.090;2023-02-21T22:23:27;96406.13;;;4.12;100.00
68508;BME280;55510;49.560;19.090;2023-02-21T22:26:30;96406.53;;;4.09;100.00
68508;BME280;55510;49.560;19.090;2023-02-21T22:29:31;96404.91;;;4.08;100.00
68508;BME280;55510;49.560;19.090;2023-02-21T22:32:31;96404.31;;;4.06;100.00
68508;BME280;55510;49.560;19.090;2023-02-21T22:35:32;96400.03;;;4.05;100.00
68508;BME280;55510;49.560;19.090;2023-02-21T22:38:33;96408.13;;;4.03;100.00
68508;BME280;55510;49.560;19.090;2023-02-21T22:41:34;96408.13;;;4.03;100.00
68508;BME280;55510;49.560;19.090;2023-02-21T22:44:35;96412.59;;;4.03;100.00
68508;BME280;55510;49.560;19.090;2023-02-21T22:47:37;96414.22;;;4.04;100.00
68508;BME280;55510;49.560;19.090;2023-02-21T22:50:38;96404.88;;;4.01;100.00
68508;BME280;55510;49.560;19.090;2023-02-21T22:53:39;96407.13;;;3.98;100.00
68508;BME280;55510;49.560;19.090;2023-02-21T22:56:41;96414.03;;;3.99;100.00
68508;BME280;55510;49.560;19.090;2023-02-21T22:59:49;96423.91;;;3.97;100.00
68508;BME280;55510;49.560;19.090;2023-02-21T23:02:51;96428.38;;;3.96;100.00
68508;BME280;55510;49.560;19.090;2023-02-21T23:05:52;96429.56;;;3.94;100.00
68508;BME280;55510;49.560;19.090;2023-02-21T23:08:54;96421.06;;;3.91;100.00
68508;BME280;55510;49.560;19.090;2023-02-21T23:11:58;96423.31;;;3.88;100.00
68508;BME280;55510;49.560;19.090;2023-02-21T23:14:59;96434.44;;;3.83;100.00
68508;BME280;55510;49.560;19.090;2023-02-21T23:18:00;96433.59;;;3.76;100.00
68508;BME280;55510;49.560;19.090;2023-02-21T23:21:02;96437.84;;;3.70;100.00
68508;BME280;55510;49.560;19.090;2023-02-21T23:24:04;96434.81;;;3.67;100.00
68508;BME280;55510;49.560;19.090;2023-02-21T23:27:04;96429.31;;;3.61;100.00
68508;BME280;55510;49.560;19.090;2023-02-21T23:30:09;96430.69;;;3.51;100.00
68508;BME280;55510;49.560;19.090;2023-02-21T23:33:12;96431.50;;;3.44;100.00
68508;BME280;55510;49.560;19.090;2023-02-21T23:36:15;96433.06;;;3.39;100.00
68508;BME280;55510;49.560;19.090;2023-02-21T23:39:21;96433.69;;;3.34;100.00
68508;BME280;55510;49.560;19.090;2023-02-21T23:42:22;96444.78;;;3.29;100.00
68508;BME280;55510;49.560;19.090;2023-02-21T23:45:24;96438.06;;;3.20;100.00
68508;BME280;55510;49.560;19.090;2023-02-21T23:48:26;96436.44;;;3.19;100.00
68508;BME280;55510;49.560;19.090;2023-02-21T23:51:27;96439.88;;;3.19;100.00
68508;BME280;55510;49.560;19.090;2023-02-21T23:54:29;96443.50;;;3.12;100.00
68508;BME280;55510;49.560;19.090;2023-02-21T23:57:30;96445.50;;;3.10;100.00
